sensor_id;sensor_type;location;lat;lon;timestamp;P1;durP1;ratioP1;P2;durP2;ratioP2
15228;SDS011;7717;47.792;12.076;2022-09-09T00:00:38;0.47;;;0.47;;
15228;SDS011;7717;47.792;12.076;2022-09-09T00:03:16;0.60;;;0.60;;
15228;SDS011;7717;47.792;12.076;2022-09-09T00:08:09;0.80;;;0.60;;
15228;SDS011;7717;47.792;12.076;2022-09-09T00:10:37;0.93;;;0.50;;
15228;SDS011;7717;47.792;12.076;2022-09-09T00:13:18;0.67;;;0.67;;
15228;SDS011;7717;47.792;12.076;2022-09-09T00:15:57;2.93;;;1.30;;
15228;SDS011;7717;47.792;12.076;2022-09-09T00:18:27;0.50;;;0.50;;
15228;SDS011;7717;47.792;12.076;2022-09-09T00:21:37;0.80;;;0.70;;
15228;SDS011;7717;47.792;12.076;2022-09-09T00:23:53;0.40;;;0.40;;
15228;SDS011;7717;47.792;12.076;2022-09-09T00:28:52;1.10;;;0.53;;
15228;SDS011;7717;47.792;12.076;2022-09-09T00:31:25;0.33;;;0.33;;
15228;SDS011;7717;47.792;12.076;2022-09-09T00:33:51;0.70;;;0.40;;
15228;SDS011;7717;47.792;12.076;2022-09-09T00:36:18;1.53;;;0.37;;
15228;SDS011;7717;47.792;12.076;2022-09-09T00:38:47;1.77;;;0.43;;
15228;SDS011;7717;47.792;12.076;2022-09-09T00:44:00;1.17;;;0.43;;
15228;SDS011;7717;47.792;12.076;2022-09-09T00:46:34;1.13;;;0.50;;
15228;SDS011;7717;47.792;12.076;2022-09-09T00:56:48;1.43;;;0.60;;
15228;SDS011;7717;47.792;12.076;2022-09-09T00:59:28;0.50;;;0.50;;
15228;SDS011;7717;47.792;12.076;2022-09-09T01:01:57;1.67;;;0.67;;
15228;SDS011;7717;47.792;12.076;2022-09-09T01:04:27;0.70;;;0.70;;
15228;SDS011;7717;47.792;12.076;2022-09-09T01:06:58;1.60;;;0.57;;
15228;SDS011;7717;47.792;12.076;2022-09-09T01:12:14;0.70;;;0.70;;
15228;SDS011;7717;47.792;12.076;2022-09-09T01:14:45;1.00;;;0.70;;
15228;SDS011;7717;47.792;12.076;2022-09-09T01:17:17;1.07;;;0.50;;
15228;SDS011;7717;47.792;12.076;2022-09-09T01:27:43;0.77;;;0.67;;
15228;SDS011;7717;47.792;12.076;2022-09-09T01:30:10;0.60;;;0.60;;
15228;SDS011;7717;47.792;12.076;2022-09-09T01:35:02;0.47;;;0.47;;
15228;SDS011;7717;47.792;12.076;2022-09-09T01:37:27;1.13;;;0.57;;
15228;SDS011;7717;47.792;12.076;2022-09-09T01:39:52;1.93;;;0.50;;
15228;SDS011;7717;47.792;12.076;2022-09-09T01:42:18;0.97;;;0.50;;
15228;SDS011;7717;47.792;12.076;2022-09-09T01:44:43;1.63;;;0.60;;
15228;SDS011;7717;47.792;12.076;2022-09-09T01:47:09;0.50;;;0.50;;
15228;SDS011;7717;47.792;12.076;2022-09-09T01:49:34;0.70;;;0.60;;
15228;SDS011;7717;47.792;12.076;2022-09-09T01:51:59;3.27;;;0.60;;
15228;SDS011;7717;47.792;12.076;2022-09-09T01:54:29;3.20;;;0.80;;
15228;SDS011;7717;47.792;12.076;2022-09-09T02:02:26;1.13;;;0.70;;
15228;SDS011;7717;47.792;12.076;2022-09-09T02:04:59;0.60;;;0.60;;
15228;SDS011;7717;47.792;12.076;2022-09-09T02:07:48;0.70;;;0.70;;
15228;SDS011;7717;47.792;12.076;2022-09-09T02:10:28;0.83;;;0.70;;
15228;SDS011;7717;47.792;12.076;2022-09-09T02:13:00;1.07;;;0.87;;
15228;SDS011;7717;47.792;12.076;2022-09-09T02:15:30;0.90;;;0.87;;
15228;SDS011;7717;47.792;12.076;2022-09-09T02:17:57;2.27;;;0.80;;
15228;SDS011;7717;47.792;12.076;2022-09-09T02:20:23;1.60;;;0.70;;
15228;SDS011;7717;47.792;12.076;2022-09-09T02:22:50;1.27;;;0.80;;
15228;SDS011;7717;47.792;12.076;2022-09-09T02:25:17;2.13;;;0.70;;
15228;SDS011;7717;47.792;12.076;2022-09-09T02:27:43;1.50;;;0.83;;
15228;SDS011;7717;47.792;12.076;2022-09-09T02:30:10;1.90;;;0.80;;
15228;SDS011;7717;47.792;12.076;2022-09-09T02:32:35;1.57;;;1.00;;
15228;SDS011;7717;47.792;12.076;2022-09-09T02:35:03;0.63;;;0.63;;
15228;SDS011;7717;47.792;12.076;2022-09-09T02:37:36;0.60;;;0.60;;
15228;SDS011;7717;47.792;12.076;2022-09-09T02:40:03;0.97;;;0.60;;
15228;SDS011;7717;47.792;12.076;2022-09-09T02:42:29;2.83;;;0.63;;
15228;SDS011;7717;47.792;12.076;2022-09-09T02:44:54;0.77;;;0.77;;
15228;SDS011;7717;47.792;12.076;2022-09-09T02:52:20;1.20;;;0.70;;
15228;SDS011;7717;47.792;12.076;2022-09-09T02:54:49;2.10;;;1.37;;
15228;SDS011;7717;47.792;12.076;2022-09-09T02:57:17;1.10;;;0.80;;
15228;SDS011;7717;47.792;12.076;2022-09-09T02:59:44;0.73;;;0.73;;
15228;SDS011;7717;47.792;12.076;2022-09-09T03:02:10;1.03;;;0.70;;
15228;SDS011;7717;47.792;12.076;2022-09-09T03:04:36;0.60;;;0.57;;
15228;SDS011;7717;47.792;12.076;2022-09-09T03:07:01;0.50;;;0.50;;
15228;SDS011;7717;47.792;12.076;2022-09-09T03:09:28;0.50;;;0.50;;
15228;SDS011;7717;47.792;12.076;2022-09-09T03:11:53;1.93;;;0.73;;
15228;SDS011;7717;47.792;12.076;2022-09-09T03:14:20;0.73;;;0.70;;
15228;SDS011;7717;47.792;12.076;2022-09-09T03:16:46;1.83;;;0.90;;
15228;SDS011;7717;47.792;12.076;2022-09-09T03:19:11;0.77;;;0.60;;
15228;SDS011;7717;47.792;12.076;2022-09-09T03:21:37;2.80;;;0.77;;
15228;SDS011;7717;47.792;12.076;2022-09-09T03:24:02;3.53;;;0.93;;
15228;SDS011;7717;47.792;12.076;2022-09-09T03:26:28;1.13;;;0.70;;
15228;SDS011;7717;47.792;12.076;2022-09-09T03:28:54;0.90;;;0.87;;
15228;SDS011;7717;47.792;12.076;2022-09-09T03:31:19;1.47;;;0.70;;
15228;SDS011;7717;47.792;12.076;2022-09-09T03:33:44;0.60;;;0.50;;
15228;SDS011;7717;47.792;12.076;2022-09-09T03:36:10;1.90;;;0.57;;
15228;SDS011;7717;47.792;12.076;2022-09-09T03:38:35;0.90;;;0.80;;
15228;SDS011;7717;47.792;12.076;2022-09-09T03:41:00;0.97;;;0.60;;
15228;SDS011;7717;47.792;12.076;2022-09-09T03:43:27;0.87;;;0.87;;
15228;SDS011;7717;47.792;12.076;2022-09-09T03:45:53;1.60;;;0.73;;
15228;SDS011;7717;47.792;12.076;2022-09-09T03:48:22;2.43;;;0.97;;
15228;SDS011;7717;47.792;12.076;2022-09-09T03:50:48;0.63;;;0.63;;
15228;SDS011;7717;47.792;12.076;2022-09-09T03:53:14;0.60;;;0.60;;
15228;SDS011;7717;47.792;12.076;2022-09-09T03:55:43;1.07;;;0.57;;
15228;SDS011;7717;47.792;12.076;2022-09-09T03:58:08;0.73;;;0.70;;
15228;SDS011;7717;47.792;12.076;2022-09-09T04:00:34;1.17;;;1.10;;
15228;SDS011;7717;47.792;12.076;2022-09-09T04:02:59;0.70;;;0.70;;
15228;SDS011;7717;47.792;12.076;2022-09-09T04:05:24;1.50;;;0.73;;
15228;SDS011;7717;47.792;12.076;2022-09-09T04:07:49;1.43;;;0.53;;
15228;SDS011;7717;47.792;12.076;2022-09-09T04:10:16;1.30;;;0.87;;
15228;SDS011;7717;47.792;12.076;2022-09-09T04:12:41;0.97;;;0.70;;
15228;SDS011;7717;47.792;12.076;2022-09-09T04:15:07;1.13;;;0.80;;
15228;SDS011;7717;47.792;12.076;2022-09-09T04:17:33;1.03;;;0.90;;
15228;SDS011;7717;47.792;12.076;2022-09-09T04:19:58;1.00;;;0.70;;
15228;SDS011;7717;47.792;12.076;2022-09-09T04:22:23;3.90;;;0.80;;
15228;SDS011;7717;47.792;12.076;2022-09-09T04:24:48;1.20;;;0.80;;
15228;SDS011;7717;47.792;12.076;2022-09-09T04:27:13;0.90;;;0.63;;
15228;SDS011;7717;47.792;12.076;2022-09-09T04:29:39;1.17;;;0.80;;
15228;SDS011;7717;47.792;12.076;2022-09-09T04:32:04;1.60;;;0.70;;
15228;SDS011;7717;47.792;12.076;2022-09-09T04:34:30;1.57;;;0.70;;
15228;SDS011;7717;47.792;12.076;2022-09-09T04:36:56;0.50;;;0.50;;
15228;SDS011;7717;47.792;12.076;2022-09-09T04:39:22;1.47;;;0.70;;
15228;SDS011;7717;47.792;12.076;2022-09-09T04:41:48;0.50;;;0.50;;
15228;SDS011;7717;47.792;12.076;2022-09-09T04:44:13;2.93;;;0.70;;
15228;SDS011;7717;47.792;12.076;2022-09-09T04:46:38;0.90;;;0.60;;
15228;SDS011;7717;47.792;12.076;2022-09-09T04:49:04;1.13;;;0.80;;
15228;SDS011;7717;47.792;12.076;2022-09-09T04:51:30;4.00;;;0.80;;
15228;SDS011;7717;47.792;12.076;2022-09-09T04:53:56;0.50;;;0.50;;
15228;SDS011;7717;47.792;12.076;2022-09-09T04:56:22;0.77;;;0.77;;
15228;SDS011;7717;47.792;12.076;2022-09-09T04:58:47;2.27;;;0.67;;
15228;SDS011;7717;47.792;12.076;2022-09-09T05:01:14;0.83;;;0.80;;
15228;SDS011;7717;47.792;12.076;2022-09-09T05:03:40;0.50;;;0.50;;
15228;SDS011;7717;47.792;12.076;2022-09-09T05:06:06;0.70;;;0.70;;
15228;SDS011;7717;47.792;12.076;2022-09-09T05:08:32;0.80;;;0.53;;
15228;SDS011;7717;47.792;12.076;2022-09-09T05:10:57;0.83;;;0.80;;
15228;SDS011;7717;47.792;12.076;2022-09-09T05:13:24;2.93;;;1.37;;
15228;SDS011;7717;47.792;12.076;2022-09-09T05:15:53;2.60;;;0.63;;
15228;SDS011;7717;47.792;12.076;2022-09-09T05:18:18;1.37;;;0.80;;
15228;SDS011;7717;47.792;12.076;2022-09-09T05:20:44;2.93;;;0.70;;
15228;SDS011;7717;47.792;12.076;2022-09-09T05:23:09;1.13;;;0.90;;
15228;SDS011;7717;47.792;12.076;2022-09-09T05:25:36;1.80;;;0.60;;
15228;SDS011;7717;47.792;12.076;2022-09-09T05:28:01;0.57;;;0.57;;
15228;SDS011;7717;47.792;12.076;2022-09-09T05:30:27;0.60;;;0.60;;
15228;SDS011;7717;47.792;12.076;2022-09-09T05:32:52;0.80;;;0.80;;
15228;SDS011;7717;47.792;12.076;2022-09-09T05:35:20;0.60;;;0.60;;
15228;SDS011;7717;47.792;12.076;2022-09-09T05:37:45;0.70;;;0.70;;
15228;SDS011;7717;47.792;12.076;2022-09-09T05:40:11;0.67;;;0.67;;
15228;SDS011;7717;47.792;12.076;2022-09-09T05:42:36;2.27;;;0.60;;
15228;SDS011;7717;47.792;12.076;2022-09-09T05:45:02;1.37;;;0.70;;
15228;SDS011;7717;47.792;12.076;2022-09-09T05:47:27;0.70;;;0.70;;
15228;SDS011;7717;47.792;12.076;2022-09-09T05:49:53;2.33;;;0.63;;
15228;SDS011;7717;47.792;12.076;2022-09-09T05:52:19;1.13;;;0.70;;
15228;SDS011;7717;47.792;12.076;2022-09-09T05:54:44;0.70;;;0.67;;
15228;SDS011;7717;47.792;12.076;2022-09-09T05:57:09;0.80;;;0.60;;
15228;SDS011;7717;47.792;12.076;2022-09-09T05:59:34;0.67;;;0.63;;
15228;SDS011;7717;47.792;12.076;2022-09-09T06:02:00;1.97;;;0.80;;
15228;SDS011;7717;47.792;12.076;2022-09-09T06:04:25;2.00;;;0.77;;
15228;SDS011;7717;47.792;12.076;2022-09-09T06:06:50;0.83;;;0.80;;
15228;SDS011;7717;47.792;12.076;2022-09-09T06:09:15;0.60;;;0.60;;
15228;SDS011;7717;47.792;12.076;2022-09-09T06:11:41;3.57;;;0.70;;
15228;SDS011;7717;47.792;12.076;2022-09-09T06:14:06;1.23;;;0.63;;
15228;SDS011;7717;47.792;12.076;2022-09-09T06:16:32;0.50;;;0.50;;
15228;SDS011;7717;47.792;12.076;2022-09-09T06:18:58;0.90;;;0.77;;
15228;SDS011;7717;47.792;12.076;2022-09-09T06:21:25;1.53;;;0.60;;
15228;SDS011;7717;47.792;12.076;2022-09-09T06:23:51;0.77;;;0.77;;
15228;SDS011;7717;47.792;12.076;2022-09-09T06:28:46;0.73;;;0.70;;
15228;SDS011;7717;47.792;12.076;2022-09-09T06:31:13;1.30;;;0.77;;
15228;SDS011;7717;47.792;12.076;2022-09-09T06:33:39;0.80;;;0.80;;
15228;SDS011;7717;47.792;12.076;2022-09-09T06:36:06;2.63;;;0.77;;
15228;SDS011;7717;47.792;12.076;2022-09-09T06:38:31;0.60;;;0.60;;
15228;SDS011;7717;47.792;12.076;2022-09-09T06:40:58;0.90;;;0.90;;
15228;SDS011;7717;47.792;12.076;2022-09-09T06:43:27;0.70;;;0.70;;
15228;SDS011;7717;47.792;12.076;2022-09-09T06:45:53;1.43;;;0.70;;
15228;SDS011;7717;47.792;12.076;2022-09-09T06:48:18;2.23;;;0.80;;
15228;SDS011;7717;47.792;12.076;2022-09-09T06:50:43;1.40;;;0.70;;
15228;SDS011;7717;47.792;12.076;2022-09-09T06:53:08;0.70;;;0.70;;
15228;SDS011;7717;47.792;12.076;2022-09-09T06:55:34;1.87;;;0.70;;
15228;SDS011;7717;47.792;12.076;2022-09-09T06:57:59;1.50;;;0.60;;
15228;SDS011;7717;47.792;12.076;2022-09-09T07:00:25;2.03;;;1.27;;
15228;SDS011;7717;47.792;12.076;2022-09-09T07:02:50;0.70;;;0.70;;
15228;SDS011;7717;47.792;12.076;2022-09-09T07:05:16;1.63;;;0.67;;
15228;SDS011;7717;47.792;12.076;2022-09-09T07:07:41;1.27;;;0.70;;
15228;SDS011;7717;47.792;12.076;2022-09-09T07:10:06;1.50;;;0.60;;
15228;SDS011;7717;47.792;12.076;2022-09-09T07:12:32;2.13;;;0.70;;
15228;SDS011;7717;47.792;12.076;2022-09-09T07:14:57;0.80;;;0.60;;
15228;SDS011;7717;47.792;12.076;2022-09-09T07:17:23;0.60;;;0.60;;
15228;SDS011;7717;47.792;12.076;2022-09-09T07:19:48;0.70;;;0.70;;
15228;SDS011;7717;47.792;12.076;2022-09-09T07:22:13;1.03;;;0.80;;
15228;SDS011;7717;47.792;12.076;2022-09-09T07:24:39;2.07;;;0.80;;
15228;SDS011;7717;47.792;12.076;2022-09-09T07:27:05;0.70;;;0.70;;
15228;SDS011;7717;47.792;12.076;2022-09-09T07:29:30;0.50;;;0.50;;
15228;SDS011;7717;47.792;12.076;2022-09-09T07:31:55;0.60;;;0.60;;
15228;SDS011;7717;47.792;12.076;2022-09-09T07:34:22;0.63;;;0.60;;
15228;SDS011;7717;47.792;12.076;2022-09-09T07:36:47;0.70;;;0.70;;
15228;SDS011;7717;47.792;12.076;2022-09-09T07:39:14;0.80;;;0.80;;
15228;SDS011;7717;47.792;12.076;2022-09-09T07:41:41;0.80;;;0.80;;
15228;SDS011;7717;47.792;12.076;2022-09-09T07:44:16;0.90;;;0.80;;
15228;SDS011;7717;47.792;12.076;2022-09-09T07:46:42;1.47;;;1.37;;
15228;SDS011;7717;47.792;12.076;2022-09-09T07:49:07;2.73;;;1.13;;
15228;SDS011;7717;47.792;12.076;2022-09-09T07:51:37;2.03;;;1.83;;
15228;SDS011;7717;47.792;12.076;2022-09-09T07:54:04;1.03;;;0.80;;
15228;SDS011;7717;47.792;12.076;2022-09-09T07:56:30;0.90;;;0.90;;
15228;SDS011;7717;47.792;12.076;2022-09-09T07:58:56;1.10;;;1.00;;
15228;SDS011;7717;47.792;12.076;2022-09-09T08:01:30;1.50;;;1.10;;
15228;SDS011;7717;47.792;12.076;2022-09-09T08:03:56;2.10;;;0.97;;
15228;SDS011;7717;47.792;12.076;2022-09-09T08:06:24;1.20;;;1.10;;
15228;SDS011;7717;47.792;12.076;2022-09-09T08:08:50;1.00;;;0.90;;
15228;SDS011;7717;47.792;12.076;2022-09-09T08:11:16;2.50;;;0.87;;
15228;SDS011;7717;47.792;12.076;2022-09-09T08:13:42;1.43;;;0.70;;
15228;SDS011;7717;47.792;12.076;2022-09-09T08:16:12;0.93;;;0.90;;
15228;SDS011;7717;47.792;12.076;2022-09-09T08:18:38;2.00;;;0.73;;
15228;SDS011;7717;47.792;12.076;2022-09-09T08:21:11;1.67;;;0.80;;
15228;SDS011;7717;47.792;12.076;2022-09-09T08:23:37;1.23;;;0.90;;
15228;SDS011;7717;47.792;12.076;2022-09-09T08:26:09;0.80;;;0.77;;
15228;SDS011;7717;47.792;12.076;2022-09-09T08:28:35;0.93;;;0.90;;
15228;SDS011;7717;47.792;12.076;2022-09-09T08:31:07;2.20;;;0.97;;
15228;SDS011;7717;47.792;12.076;2022-09-09T08:33:32;1.30;;;1.07;;
15228;SDS011;7717;47.792;12.076;2022-09-09T08:35:58;2.60;;;1.17;;
15228;SDS011;7717;47.792;12.076;2022-09-09T08:38:23;2.70;;;1.00;;
15228;SDS011;7717;47.792;12.076;2022-09-09T08:40:49;0.80;;;0.80;;
15228;SDS011;7717;47.792;12.076;2022-09-09T08:43:18;1.67;;;0.80;;
15228;SDS011;7717;47.792;12.076;2022-09-09T08:45:55;1.23;;;0.87;;
15228;SDS011;7717;47.792;12.076;2022-09-09T08:50:50;2.00;;;0.70;;
15228;SDS011;7717;47.792;12.076;2022-09-09T08:53:17;0.90;;;0.80;;
15228;SDS011;7717;47.792;12.076;2022-09-09T08:55:46;1.53;;;0.90;;
15228;SDS011;7717;47.792;12.076;2022-09-09T08:58:17;0.63;;;0.60;;
15228;SDS011;7717;47.792;12.076;2022-09-09T09:08:26;1.50;;;1.10;;
15228;SDS011;7717;47.792;12.076;2022-09-09T09:10:54;1.00;;;0.90;;
15228;SDS011;7717;47.792;12.076;2022-09-09T09:15:52;0.80;;;0.80;;
15228;SDS011;7717;47.792;12.076;2022-09-09T09:18:22;1.37;;;0.80;;
15228;SDS011;7717;47.792;12.076;2022-09-09T09:20:58;0.87;;;0.87;;
15228;SDS011;7717;47.792;12.076;2022-09-09T09:23:29;1.77;;;1.00;;
15228;SDS011;7717;47.792;12.076;2022-09-09T09:26:00;2.17;;;1.10;;
15228;SDS011;7717;47.792;12.076;2022-09-09T09:28:27;1.50;;;1.07;;
15228;SDS011;7717;47.792;12.076;2022-09-09T09:33:31;1.43;;;0.90;;
15228;SDS011;7717;47.792;12.076;2022-09-09T09:35:59;1.33;;;1.23;;
15228;SDS011;7717;47.792;12.076;2022-09-09T09:38:25;1.50;;;1.40;;
15228;SDS011;7717;47.792;12.076;2022-09-09T09:40:53;1.33;;;1.20;;
15228;SDS011;7717;47.792;12.076;2022-09-09T09:43:22;3.13;;;1.40;;
15228;SDS011;7717;47.792;12.076;2022-09-09T09:45:49;2.70;;;1.27;;
15228;SDS011;7717;47.792;12.076;2022-09-09T09:48:14;1.10;;;1.10;;
15228;SDS011;7717;47.792;12.076;2022-09-09T09:51:13;1.53;;;1.43;;
15228;SDS011;7717;47.792;12.076;2022-09-09T09:53:33;2.30;;;1.90;;
15228;SDS011;7717;47.792;12.076;2022-09-09T09:56:00;1.40;;;1.30;;
15228;SDS011;7717;47.792;12.076;2022-09-09T09:58:26;2.87;;;1.40;;
15228;SDS011;7717;47.792;12.076;2022-09-09T10:00:54;1.70;;;1.33;;
15228;SDS011;7717;47.792;12.076;2022-09-09T10:03:21;1.60;;;1.40;;
15228;SDS011;7717;47.792;12.076;2022-09-09T10:05:47;2.60;;;1.20;;
15228;SDS011;7717;47.792;12.076;2022-09-09T10:08:14;1.77;;;1.30;;
15228;SDS011;7717;47.792;12.076;2022-09-09T10:13:11;1.70;;;1.60;;
15228;SDS011;7717;47.792;12.076;2022-09-09T10:23:46;1.63;;;1.23;;
15228;SDS011;7717;47.792;12.076;2022-09-09T10:37:11;1.53;;;1.30;;
15228;SDS011;7717;47.792;12.076;2022-09-09T10:39:42;1.50;;;1.23;;
15228;SDS011;7717;47.792;12.076;2022-09-09T10:42:14;1.27;;;1.17;;
15228;SDS011;7717;47.792;12.076;2022-09-09T10:44:42;1.50;;;1.40;;
15228;SDS011;7717;47.792;12.076;2022-09-09T10:57:26;1.20;;;1.10;;
15228;SDS011;7717;47.792;12.076;2022-09-09T10:59:58;1.33;;;0.90;;
15228;SDS011;7717;47.792;12.076;2022-09-09T11:02:29;2.90;;;1.50;;
15228;SDS011;7717;47.792;12.076;2022-09-09T11:07:28;5.57;;;2.40;;
15228;SDS011;7717;47.792;12.076;2022-09-09T11:09:58;1.93;;;1.43;;
15228;SDS011;7717;47.792;12.076;2022-09-09T11:12:24;1.50;;;1.40;;
15228;SDS011;7717;47.792;12.076;2022-09-09T11:14:54;1.83;;;1.70;;
15228;SDS011;7717;47.792;12.076;2022-09-09T11:17:25;1.63;;;1.53;;
15228;SDS011;7717;47.792;12.076;2022-09-09T11:19:52;1.50;;;1.40;;
15228;SDS011;7717;47.792;12.076;2022-09-09T11:24:57;1.37;;;1.20;;
15228;SDS011;7717;47.792;12.076;2022-09-09T11:30:15;2.53;;;1.60;;
15228;SDS011;7717;47.792;12.076;2022-09-09T11:40:30;2.50;;;2.30;;
15228;SDS011;7717;47.792;12.076;2022-09-09T11:43:05;1.90;;;1.80;;
15228;SDS011;7717;47.792;12.076;2022-09-09T11:45:34;2.40;;;1.70;;
15228;SDS011;7717;47.792;12.076;2022-09-09T11:48:00;3.10;;;1.70;;
15228;SDS011;7717;47.792;12.076;2022-09-09T11:53:02;2.40;;;1.70;;
15228;SDS011;7717;47.792;12.076;2022-09-09T11:55:28;2.40;;;1.70;;
15228;SDS011;7717;47.792;12.076;2022-09-09T12:00:27;1.47;;;1.37;;
15228;SDS011;7717;47.792;12.076;2022-09-09T12:02:55;1.77;;;1.03;;
15228;SDS011;7717;47.792;12.076;2022-09-09T12:05:20;1.77;;;1.03;;
15228;SDS011;7717;47.792;12.076;2022-09-09T12:12:46;2.57;;;1.73;;
15228;SDS011;7717;47.792;12.076;2022-09-09T12:17:47;2.23;;;1.40;;
15228;SDS011;7717;47.792;12.076;2022-09-09T12:20:13;1.90;;;1.20;;
15228;SDS011;7717;47.792;12.076;2022-09-09T12:25:26;2.33;;;1.30;;
15228;SDS011;7717;47.792;12.076;2022-09-09T12:27:59;1.47;;;1.37;;
15228;SDS011;7717;47.792;12.076;2022-09-09T12:30:32;1.37;;;1.27;;
15228;SDS011;7717;47.792;12.076;2022-09-09T12:33:10;1.43;;;1.30;;
15228;SDS011;7717;47.792;12.076;2022-09-09T12:35:37;2.13;;;1.07;;
15228;SDS011;7717;47.792;12.076;2022-09-09T12:38:03;2.80;;;1.33;;
15228;SDS011;7717;47.792;12.076;2022-09-09T12:40:32;3.10;;;1.50;;
15228;SDS011;7717;47.792;12.076;2022-09-09T12:43:00;2.17;;;1.23;;
15228;SDS011;7717;47.792;12.076;2022-09-09T12:45:26;1.00;;;1.00;;
15228;SDS011;7717;47.792;12.076;2022-09-09T12:48:09;1.33;;;1.23;;
15228;SDS011;7717;47.792;12.076;2022-09-09T12:50:37;1.50;;;0.97;;
15228;SDS011;7717;47.792;12.076;2022-09-09T12:53:06;3.33;;;1.20;;
15228;SDS011;7717;47.792;12.076;2022-09-09T12:55:32;1.87;;;1.30;;
15228;SDS011;7717;47.792;12.076;2022-09-09T12:58:00;0.90;;;0.90;;
15228;SDS011;7717;47.792;12.076;2022-09-09T13:00:29;1.80;;;1.17;;
15228;SDS011;7717;47.792;12.076;2022-09-09T13:03:14;1.40;;;1.17;;
15228;SDS011;7717;47.792;12.076;2022-09-09T13:05:40;1.80;;;1.00;;
15228;SDS011;7717;47.792;12.076;2022-09-09T13:08:06;2.00;;;1.47;;
15228;SDS011;7717;47.792;12.076;2022-09-09T13:10:34;1.67;;;1.57;;
15228;SDS011;7717;47.792;12.076;2022-09-09T13:13:00;1.87;;;1.40;;
15228;SDS011;7717;47.792;12.076;2022-09-09T13:15:27;1.33;;;1.10;;
15228;SDS011;7717;47.792;12.076;2022-09-09T13:17:57;2.30;;;1.30;;
15228;SDS011;7717;47.792;12.076;2022-09-09T13:20:23;1.50;;;1.40;;
15228;SDS011;7717;47.792;12.076;2022-09-09T13:22:50;1.23;;;1.03;;
15228;SDS011;7717;47.792;12.076;2022-09-09T13:25:19;0.90;;;0.90;;
15228;SDS011;7717;47.792;12.076;2022-09-09T13:27:52;14.67;;;2.30;;
15228;SDS011;7717;47.792;12.076;2022-09-09T13:30:23;12.03;;;2.70;;
15228;SDS011;7717;47.792;12.076;2022-09-09T13:35:28;7.37;;;2.20;;
15228;SDS011;7717;47.792;12.076;2022-09-09T13:37:54;3.23;;;2.00;;
15228;SDS011;7717;47.792;12.076;2022-09-09T13:40:21;2.93;;;1.67;;
15228;SDS011;7717;47.792;12.076;2022-09-09T13:42:46;13.23;;;3.40;;
15228;SDS011;7717;47.792;12.076;2022-09-09T13:45:19;1.33;;;1.23;;
15228;SDS011;7717;47.792;12.076;2022-09-09T13:47:45;1.63;;;1.53;;
15228;SDS011;7717;47.792;12.076;2022-09-09T13:52:50;7.93;;;2.70;;
15228;SDS011;7717;47.792;12.076;2022-09-09T13:55:18;3.40;;;1.80;;
15228;SDS011;7717;47.792;12.076;2022-09-09T13:57:50;1.50;;;1.33;;
15228;SDS011;7717;47.792;12.076;2022-09-09T14:00:15;1.40;;;1.30;;
15228;SDS011;7717;47.792;12.076;2022-09-09T14:02:41;1.00;;;1.00;;
15228;SDS011;7717;47.792;12.076;2022-09-09T14:05:06;2.10;;;1.20;;
15228;SDS011;7717;47.792;12.076;2022-09-09T14:07:31;2.60;;;0.93;;
15228;SDS011;7717;47.792;12.076;2022-09-09T14:09:57;0.87;;;0.70;;
15228;SDS011;7717;47.792;12.076;2022-09-09T14:12:22;1.00;;;1.00;;
15228;SDS011;7717;47.792;12.076;2022-09-09T14:14:48;1.17;;;0.57;;
15228;SDS011;7717;47.792;12.076;2022-09-09T14:17:14;1.37;;;0.90;;
15228;SDS011;7717;47.792;12.076;2022-09-09T14:19:39;0.60;;;0.60;;
15228;SDS011;7717;47.792;12.076;2022-09-09T14:22:05;1.10;;;0.50;;
15228;SDS011;7717;47.792;12.076;2022-09-09T14:24:30;1.23;;;0.87;;
15228;SDS011;7717;47.792;12.076;2022-09-09T14:26:55;1.07;;;0.97;;
15228;SDS011;7717;47.792;12.076;2022-09-09T14:29:21;0.83;;;0.63;;
15228;SDS011;7717;47.792;12.076;2022-09-09T14:31:46;0.93;;;0.60;;
15228;SDS011;7717;47.792;12.076;2022-09-09T14:34:11;0.90;;;0.50;;
15228;SDS011;7717;47.792;12.076;2022-09-09T14:36:37;0.70;;;0.70;;
15228;SDS011;7717;47.792;12.076;2022-09-09T14:39:03;1.20;;;1.07;;
15228;SDS011;7717;47.792;12.076;2022-09-09T14:41:29;0.80;;;0.80;;
15228;SDS011;7717;47.792;12.076;2022-09-09T14:43:55;1.20;;;0.90;;
15228;SDS011;7717;47.792;12.076;2022-09-09T14:46:20;2.07;;;0.93;;
15228;SDS011;7717;47.792;12.076;2022-09-09T14:48:45;0.70;;;0.70;;
15228;SDS011;7717;47.792;12.076;2022-09-09T14:51:17;1.60;;;0.80;;
15228;SDS011;7717;47.792;12.076;2022-09-09T14:53:44;0.77;;;0.70;;
15228;SDS011;7717;47.792;12.076;2022-09-09T14:56:11;0.70;;;0.70;;
15228;SDS011;7717;47.792;12.076;2022-09-09T14:58:37;1.57;;;1.47;;
15228;SDS011;7717;47.792;12.076;2022-09-09T15:01:03;0.80;;;0.80;;
15228;SDS011;7717;47.792;12.076;2022-09-09T15:03:29;1.40;;;1.30;;
15228;SDS011;7717;47.792;12.076;2022-09-09T15:05:55;2.13;;;1.00;;
15228;SDS011;7717;47.792;12.076;2022-09-09T15:08:20;1.60;;;0.90;;
15228;SDS011;7717;47.792;12.076;2022-09-09T15:10:46;0.90;;;0.90;;
15228;SDS011;7717;47.792;12.076;2022-09-09T15:13:12;1.23;;;1.00;;
15228;SDS011;7717;47.792;12.076;2022-09-09T15:15:39;2.03;;;0.80;;
15228;SDS011;7717;47.792;12.076;2022-09-09T15:18:06;0.97;;;0.90;;
15228;SDS011;7717;47.792;12.076;2022-09-09T15:20:31;0.77;;;0.63;;
15228;SDS011;7717;47.792;12.076;2022-09-09T15:22:57;0.87;;;0.80;;
15228;SDS011;7717;47.792;12.076;2022-09-09T15:25:22;0.60;;;0.60;;
15228;SDS011;7717;47.792;12.076;2022-09-09T15:27:47;1.37;;;0.63;;
15228;SDS011;7717;47.792;12.076;2022-09-09T15:30:13;1.03;;;0.60;;
15228;SDS011;7717;47.792;12.076;2022-09-09T15:32:38;1.90;;;0.70;;
15228;SDS011;7717;47.792;12.076;2022-09-09T15:35:04;1.83;;;1.73;;
15228;SDS011;7717;47.792;12.076;2022-09-09T15:37:30;1.67;;;0.83;;
15228;SDS011;7717;47.792;12.076;2022-09-09T15:39:55;1.03;;;0.70;;
15228;SDS011;7717;47.792;12.076;2022-09-09T15:42:23;1.33;;;1.10;;
15228;SDS011;7717;47.792;12.076;2022-09-09T15:44:50;0.87;;;0.87;;
15228;SDS011;7717;47.792;12.076;2022-09-09T15:47:15;0.83;;;0.80;;
15228;SDS011;7717;47.792;12.076;2022-09-09T15:49:41;1.10;;;0.83;;
15228;SDS011;7717;47.792;12.076;2022-09-09T15:52:08;1.00;;;1.00;;
15228;SDS011;7717;47.792;12.076;2022-09-09T15:54:35;1.23;;;1.13;;
15228;SDS011;7717;47.792;12.076;2022-09-09T15:57:04;1.43;;;1.00;;
15228;SDS011;7717;47.792;12.076;2022-09-09T15:59:30;0.93;;;0.93;;
15228;SDS011;7717;47.792;12.076;2022-09-09T16:01:56;1.57;;;1.00;;
15228;SDS011;7717;47.792;12.076;2022-09-09T16:04:23;1.97;;;1.30;;
15228;SDS011;7717;47.792;12.076;2022-09-09T16:06:58;1.83;;;1.40;;
15228;SDS011;7717;47.792;12.076;2022-09-09T16:09:24;1.30;;;1.20;;
15228;SDS011;7717;47.792;12.076;2022-09-09T16:11:50;1.60;;;1.20;;
15228;SDS011;7717;47.792;12.076;2022-09-09T16:14:16;1.20;;;0.90;;
15228;SDS011;7717;47.792;12.076;2022-09-09T16:16:42;0.73;;;0.73;;
15228;SDS011;7717;47.792;12.076;2022-09-09T16:19:08;0.80;;;0.80;;
15228;SDS011;7717;47.792;12.076;2022-09-09T16:21:47;1.03;;;1.00;;
15228;SDS011;7717;47.792;12.076;2022-09-09T16:24:14;1.00;;;0.87;;
15228;SDS011;7717;47.792;12.076;2022-09-09T16:26:42;4.07;;;2.10;;
15228;SDS011;7717;47.792;12.076;2022-09-09T16:29:08;0.80;;;0.80;;
15228;SDS011;7717;47.792;12.076;2022-09-09T16:31:34;0.80;;;0.80;;
15228;SDS011;7717;47.792;12.076;2022-09-09T16:33:59;1.67;;;1.03;;
15228;SDS011;7717;47.792;12.076;2022-09-09T16:36:26;0.80;;;0.80;;
15228;SDS011;7717;47.792;12.076;2022-09-09T16:38:52;3.73;;;0.93;;
15228;SDS011;7717;47.792;12.076;2022-09-09T16:41:18;0.60;;;0.60;;
15228;SDS011;7717;47.792;12.076;2022-09-09T16:43:45;0.90;;;0.57;;
15228;SDS011;7717;47.792;12.076;2022-09-09T16:46:12;2.23;;;2.03;;
15228;SDS011;7717;47.792;12.076;2022-09-09T16:48:38;3.27;;;2.30;;
15228;SDS011;7717;47.792;12.076;2022-09-09T16:51:07;1.70;;;1.40;;
15228;SDS011;7717;47.792;12.076;2022-09-09T16:53:35;3.53;;;2.67;;